sensor_id;sensor_type;location;lat;lon;timestamp;temperature;humidity
70851;DHT22;58475;49.662;9.636;2024-01-06T00:00:38;2.35;98.18
70851;DHT22;58475;49.662;9.636;2024-01-06T00:03:03;2.47;97.33
70851;DHT22;58475;49.662;9.636;2024-01-06T00:05:29;2.35;97.20
70851;DHT22;58475;49.662;9.636;2024-01-06T00:07:54;2.26;97.63
70851;DHT22;58475;49.662;9.636;2024-01-06T00:10:20;2.26;97.81
70851;DHT22;58475;49.662;9.636;2024-01-06T00:12:45;2.35;97.03
70851;DHT22;58475;49.662;9.636;2024-01-06T00:15:11;1.99;97.41
70851;DHT22;58475;49.662;9.636;2024-01-06T00:17:36;2.02;97.54
70851;DHT22;58475;49.662;9.636;2024-01-06T00:20:02;2.02;97.40
70851;DHT22;58475;49.662;9.636;2024-01-06T00:22:28;1.95;97.80
70851;DHT22;58475;49.662;9.636;2024-01-06T00:24:53;1.86;98.10
70851;DHT22;58475;49.662;9.636;2024-01-06T00:27:19;1.85;98.34
70851;DHT22;58475;49.662;9.636;2024-01-06T00:29:44;1.86;98.50
70851;DHT22;58475;49.662;9.636;2024-01-06T00:32:10;1.89;98.43
70851;DHT22;58475;49.662;9.636;2024-01-06T00:34:35;1.92;98.38
70851;DHT22;58475;49.662;9.636;2024-01-06T00:37:01;1.95;98.43
70851;DHT22;58475;49.662;9.636;2024-01-06T00:39:26;2.09;97.65
70851;DHT22;58475;49.662;9.636;2024-01-06T00:41:52;1.99;97.80
70851;DHT22;58475;49.662;9.636;2024-01-06T00:44:17;2.06;97.48
70851;DHT22;58475;49.662;9.636;2024-01-06T00:46:43;1.99;97.68
70851;DHT22;58475;49.662;9.636;2024-01-06T00:49:08;2.01;97.61
70851;DHT22;58475;49.662;9.636;2024-01-06T00:51:33;1.99;97.42
70851;DHT22;58475;49.662;9.636;2024-01-06T00:53:59;1.85;98.12
70851;DHT22;58475;49.662;9.636;2024-01-06T00:56:24;1.94;98.07
70851;DHT22;58475;49.662;9.636;2024-01-06T00:58:52;1.88;97.80
70851;DHT22;58475;49.662;9.636;2024-01-06T01:01:17;1.88;98.00
70851;DHT22;58475;49.662;9.636;2024-01-06T01:03:43;1.85;98.00
70851;DHT22;58475;49.662;9.636;2024-01-06T01:06:08;1.82;98.11
70851;DHT22;58475;49.662;9.636;2024-01-06T01:08:34;1.77;98.19
70851;DHT22;58475;49.662;9.636;2024-01-06T01:10:59;1.79;98.45
70851;DHT22;58475;49.662;9.636;2024-01-06T01:13:25;1.82;98.29
70851;DHT22;58475;49.662;9.636;2024-01-06T01:15:50;1.89;98.92
70851;DHT22;58475;49.662;9.636;2024-01-06T01:18:16;1.99;97.99
70851;DHT22;58475;49.662;9.636;2024-01-06T01:20:41;1.97;97.75
70851;DHT22;58475;49.662;9.636;2024-01-06T01:23:08;1.97;97.53
70851;DHT22;58475;49.662;9.636;2024-01-06T01:25:33;1.91;97.72
70851;DHT22;58475;49.662;9.636;2024-01-06T01:27:59;2.01;97.61
70851;DHT22;58475;49.662;9.636;2024-01-06T01:30:24;1.98;97.38
70851;DHT22;58475;49.662;9.636;2024-01-06T01:32:50;1.73;97.81
70851;DHT22;58475;49.662;9.636;2024-01-06T01:35:15;1.60;97.92
70851;DHT22;58475;49.662;9.636;2024-01-06T01:37:41;1.57;97.93
70851;DHT22;58475;49.662;9.636;2024-01-06T01:40:07;1.58;97.97
70851;DHT22;58475;49.662;9.636;2024-01-06T01:42:33;1.54;98.23
70851;DHT22;58475;49.662;9.636;2024-01-06T01:44:58;1.61;98.13
70851;DHT22;58475;49.662;9.636;2024-01-06T01:47:24;1.57;98.18
70851;DHT22;58475;49.662;9.636;2024-01-06T01:49:50;1.65;98.09
70851;DHT22;58475;49.662;9.636;2024-01-06T01:52:16;1.71;97.56
70851;DHT22;58475;49.662;9.636;2024-01-06T01:54:42;1.63;97.47
70851;DHT22;58475;49.662;9.636;2024-01-06T01:57:11;1.57;97.92
70851;DHT22;58475;49.662;9.636;2024-01-06T01:59:37;1.57;98.19
70851;DHT22;58475;49.662;9.636;2024-01-06T02:02:03;1.48;98.58
70851;DHT22;58475;49.662;9.636;2024-01-06T02:04:29;1.74;98.02
70851;DHT22;58475;49.662;9.636;2024-01-06T02:06:54;1.82;97.35
70851;DHT22;58475;49.662;9.636;2024-01-06T02:09:23;1.86;96.88
70851;DHT22;58475;49.662;9.636;2024-01-06T02:11:52;1.78;96.73
70851;DHT22;58475;49.662;9.636;2024-01-06T02:14:18;1.64;97.44
70851;DHT22;58475;49.662;9.636;2024-01-06T02:16:43;1.61;97.70
70851;DHT22;58475;49.662;9.636;2024-01-06T02:19:10;1.55;97.74
70851;DHT22;58475;49.662;9.636;2024-01-06T02:21:41;1.54;97.97
70851;DHT22;58475;49.662;9.636;2024-01-06T02:24:07;1.55;98.10
70851;DHT22;58475;49.662;9.636;2024-01-06T02:26:32;1.64;97.90
70851;DHT22;58475;49.662;9.636;2024-01-06T02:28:58;1.75;97.46
70851;DHT22;58475;49.662;9.636;2024-01-06T02:31:23;1.77;96.78
70851;DHT22;58475;49.662;9.636;2024-01-06T02:33:49;1.74;96.94
70851;DHT22;58475;49.662;9.636;2024-01-06T02:36:14;1.63;97.13
70851;DHT22;58475;49.662;9.636;2024-01-06T02:38:39;1.44;97.98
70851;DHT22;58475;49.662;9.636;2024-01-06T02:41:05;1.53;97.88
70851;DHT22;58475;49.662;9.636;2024-01-06T02:43:30;1.61;97.67
70851;DHT22;58475;49.662;9.636;2024-01-06T02:45:56;1.65;97.33
70851;DHT22;58475;49.662;9.636;2024-01-06T02:48:21;1.60;97.63
70851;DHT22;58475;49.662;9.636;2024-01-06T02:50:47;1.54;97.96
70851;DHT22;58475;49.662;9.636;2024-01-06T02:53:12;1.55;98.02
70851;DHT22;58475;49.662;9.636;2024-01-06T02:55:38;1.55;98.27
70851;DHT22;58475;49.662;9.636;2024-01-06T02:58:04;1.63;98.22
70851;DHT22;58475;49.662;9.636;2024-01-06T03:00:30;1.58;98.35
70851;DHT22;58475;49.662;9.636;2024-01-06T03:02:55;1.60;98.50
70851;DHT22;58475;49.662;9.636;2024-01-06T03:05:21;1.61;98.44
70851;DHT22;58475;49.662;9.636;2024-01-06T03:07:46;1.61;98.42
70851;DHT22;58475;49.662;9.636;2024-01-06T03:10:12;1.70;98.22
70851;DHT22;58475;49.662;9.636;2024-01-06T03:12:37;1.70;97.90
70851;DHT22;58475;49.662;9.636;2024-01-06T03:15:03;1.65;98.09
70851;DHT22;58475;49.662;9.636;2024-01-06T03:17:28;1.68;98.04
70851;DHT22;58475;49.662;9.636;2024-01-06T03:19:54;1.67;97.99
70851;DHT22;58475;49.662;9.636;2024-01-06T03:22:20;1.63;97.89
70851;DHT22;58475;49.662;9.636;2024-01-06T03:24:45;1.63;97.99
70851;DHT22;58475;49.662;9.636;2024-01-06T03:27:11;1.64;97.92
70851;DHT22;58475;49.662;9.636;2024-01-06T03:29:37;1.68;97.75
70851;DHT22;58475;49.662;9.636;2024-01-06T03:32:03;1.75;97.61
70851;DHT22;58475;49.662;9.636;2024-01-06T03:34:29;1.67;97.95
70851;DHT22;58475;49.662;9.636;2024-01-06T03:36:54;1.71;97.84
70851;DHT22;58475;49.662;9.636;2024-01-06T03:39:20;1.64;97.91
70851;DHT22;58475;49.662;9.636;2024-01-06T03:41:45;1.70;97.99
70851;DHT22;58475;49.662;9.636;2024-01-06T03:44:11;1.67;98.05
70851;DHT22;58475;49.662;9.636;2024-01-06T03:46:37;1.64;98.15
70851;DHT22;58475;49.662;9.636;2024-01-06T03:49:02;1.70;98.18
70851;DHT22;58475;49.662;9.636;2024-01-06T03:51:28;1.78;97.92
70851;DHT22;58475;49.662;9.636;2024-01-06T03:53:53;1.74;97.63
70851;DHT22;58475;49.662;9.636;2024-01-06T03:56:19;1.73;97.74
70851;DHT22;58475;49.662;9.636;2024-01-06T03:58:44;1.65;98.03
70851;DHT22;58475;49.662;9.636;2024-01-06T04:01:10;1.58;98.20
70851;DHT22;58475;49.662;9.636;2024-01-06T04:03:35;1.60;98.26
70851;DHT22;58475;49.662;9.636;2024-01-06T04:06:01;1.60;98.34
70851;DHT22;58475;49.662;9.636;2024-01-06T04:08:27;1.65;98.13
70851;DHT22;58475;49.662;9.636;2024-01-06T04:10:52;1.70;98.01
70851;DHT22;58475;49.662;9.636;2024-01-06T04:13:18;1.73;97.85
70851;DHT22;58475;49.662;9.636;2024-01-06T04:15:43;1.67;97.40
70851;DHT22;58475;49.662;9.636;2024-01-06T04:18:08;1.47;97.79
70851;DHT22;58475;49.662;9.636;2024-01-06T04:20:34;1.32;98.48
70851;DHT22;58475;49.662;9.636;2024-01-06T04:23:00;1.30;99.11
70851;DHT22;58475;49.662;9.636;2024-01-06T04:25:25;1.42;98.90
70851;DHT22;58475;49.662;9.636;2024-01-06T04:27:51;1.53;98.59
70851;DHT22;58475;49.662;9.636;2024-01-06T04:30:17;1.61;98.45
70851;DHT22;58475;49.662;9.636;2024-01-06T04:32:43;1.68;98.15
70851;DHT22;58475;49.662;9.636;2024-01-06T04:35:09;1.74;98.04
70851;DHT22;58475;49.662;9.636;2024-01-06T04:37:35;1.81;97.87
70851;DHT22;58475;49.662;9.636;2024-01-06T04:40:00;1.78;97.81
70851;DHT22;58475;49.662;9.636;2024-01-06T04:42:26;1.71;98.32
70851;DHT22;58475;49.662;9.636;2024-01-06T04:44:52;1.73;98.52
70851;DHT22;58475;49.662;9.636;2024-01-06T04:47:17;1.78;98.03
70851;DHT22;58475;49.662;9.636;2024-01-06T04:49:43;1.86;97.67
70851;DHT22;58475;49.662;9.636;2024-01-06T04:52:09;1.89;97.59
70851;DHT22;58475;49.662;9.636;2024-01-06T04:54:35;1.84;97.80
70851;DHT22;58475;49.662;9.636;2024-01-06T04:57:00;1.84;97.98
70851;DHT22;58475;49.662;9.636;2024-01-06T04:59:26;1.82;98.21
70851;DHT22;58475;49.662;9.636;2024-01-06T05:01:51;1.84;98.36
70851;DHT22;58475;49.662;9.636;2024-01-06T05:04:18;2.08;98.03
70851;DHT22;58475;49.662;9.636;2024-01-06T05:06:43;2.12;97.37
70851;DHT22;58475;49.662;9.636;2024-01-06T05:09:09;2.04;97.28
70851;DHT22;58475;49.662;9.636;2024-01-06T05:11:34;1.99;97.50
70851;DHT22;58475;49.662;9.636;2024-01-06T05:14:00;1.85;97.73
70851;DHT22;58475;49.662;9.636;2024-01-06T05:16:25;1.86;97.98
70851;DHT22;58475;49.662;9.636;2024-01-06T05:18:53;1.84;98.07
70851;DHT22;58475;49.662;9.636;2024-01-06T05:21:18;1.88;98.21
70851;DHT22;58475;49.662;9.636;2024-01-06T05:23:44;1.91;98.13
70851;DHT22;58475;49.662;9.636;2024-01-06T05:26:09;1.94;98.09
70851;DHT22;58475;49.662;9.636;2024-01-06T05:28:36;1.94;97.96
70851;DHT22;58475;49.662;9.636;2024-01-06T05:31:02;1.94;98.01
70851;DHT22;58475;49.662;9.636;2024-01-06T05:33:28;1.98;97.66
70851;DHT22;58475;49.662;9.636;2024-01-06T05:35:53;2.02;97.63
70851;DHT22;58475;49.662;9.636;2024-01-06T05:38:18;1.91;97.52
70851;DHT22;58475;49.662;9.636;2024-01-06T05:40:44;1.81;98.00
70851;DHT22;58475;49.662;9.636;2024-01-06T05:43:09;1.78;98.08
70851;DHT22;58475;49.662;9.636;2024-01-06T05:45:35;1.78;98.19
70851;DHT22;58475;49.662;9.636;2024-01-06T05:48:02;1.88;97.81
70851;DHT22;58475;49.662;9.636;2024-01-06T05:50:28;2.04;97.14
70851;DHT22;58475;49.662;9.636;2024-01-06T05:52:53;1.92;96.79
70851;DHT22;58475;49.662;9.636;2024-01-06T05:55:19;1.74;97.78
70851;DHT22;58475;49.662;9.636;2024-01-06T05:57:44;1.67;97.85
70851;DHT22;58475;49.662;9.636;2024-01-06T06:00:10;1.67;97.81
70851;DHT22;58475;49.662;9.636;2024-01-06T06:02:37;1.60;98.16
70851;DHT22;58475;49.662;9.636;2024-01-06T06:05:04;1.64;98.25
70851;DHT22;58475;49.662;9.636;2024-01-06T06:07:29;1.65;98.42
70851;DHT22;58475;49.662;9.636;2024-01-06T06:09:55;1.63;98.72
70851;DHT22;58475;49.662;9.636;2024-01-06T06:12:20;1.68;98.68
70851;DHT22;58475;49.662;9.636;2024-01-06T06:14:46;1.73;98.88
70851;DHT22;58475;49.662;9.636;2024-01-06T06:17:11;1.77;98.63
70851;DHT22;58475;49.662;9.636;2024-01-06T06:19:37;1.82;98.52
70851;DHT22;58475;49.662;9.636;2024-01-06T06:22:02;1.91;98.43
70851;DHT22;58475;49.662;9.636;2024-01-06T06:24:28;2.08;97.87
70851;DHT22;58475;49.662;9.636;2024-01-06T06:26:53;2.05;97.73
70851;DHT22;58475;49.662;9.636;2024-01-06T06:29:19;2.04;97.86
70851;DHT22;58475;49.662;9.636;2024-01-06T06:31:46;2.01;97.97
70851;DHT22;58475;49.662;9.636;2024-01-06T06:34:12;2.06;97.75
70851;DHT22;58475;49.662;9.636;2024-01-06T06:36:38;1.97;98.00
70851;DHT22;58475;49.662;9.636;2024-01-06T06:39:03;1.92;98.31
70851;DHT22;58475;49.662;9.636;2024-01-06T06:41:30;1.95;98.47
70851;DHT22;58475;49.662;9.636;2024-01-06T06:43:57;1.92;98.65
70851;DHT22;58475;49.662;9.636;2024-01-06T06:46:23;1.97;98.71
70851;DHT22;58475;49.662;9.636;2024-01-06T06:48:49;1.98;98.63
70851;DHT22;58475;49.662;9.636;2024-01-06T06:51:15;2.06;98.26
70851;DHT22;58475;49.662;9.636;2024-01-06T06:53:41;2.05;98.37
70851;DHT22;58475;49.662;9.636;2024-01-06T06:56:06;2.13;98.28
70851;DHT22;58475;49.662;9.636;2024-01-06T06:58:32;2.18;97.87
70851;DHT22;58475;49.662;9.636;2024-01-06T07:00:58;2.13;98.12
70851;DHT22;58475;49.662;9.636;2024-01-06T07:03:24;2.28;97.61
70851;DHT22;58475;49.662;9.636;2024-01-06T07:05:49;2.23;97.78
70851;DHT22;58475;49.662;9.636;2024-01-06T07:08:15;2.15;98.02
70851;DHT22;58475;49.662;9.636;2024-01-06T07:10:41;2.15;98.30
70851;DHT22;58475;49.662;9.636;2024-01-06T07:13:06;2.21;97.89
70851;DHT22;58475;49.662;9.636;2024-01-06T07:15:32;2.26;97.94
70851;DHT22;58475;49.662;9.636;2024-01-06T07:17:57;2.22;98.06
70851;DHT22;58475;49.662;9.636;2024-01-06T07:20:23;2.25;98.20
70851;DHT22;58475;49.662;9.636;2024-01-06T07:22:48;2.36;98.05
70851;DHT22;58475;49.662;9.636;2024-01-06T07:25:14;2.40;97.81
70851;DHT22;58475;49.662;9.636;2024-01-06T07:27:39;2.39;97.72
70851;DHT22;58475;49.662;9.636;2024-01-06T07:30:05;2.36;97.90
70851;DHT22;58475;49.662;9.636;2024-01-06T07:32:33;2.32;97.97
70851;DHT22;58475;49.662;9.636;2024-01-06T07:34:58;2.25;98.09
70851;DHT22;58475;49.662;9.636;2024-01-06T07:37:24;2.35;98.22
70851;DHT22;58475;49.662;9.636;2024-01-06T07:39:49;2.40;98.05
70851;DHT22;58475;49.662;9.636;2024-01-06T07:42:15;2.37;98.11
70851;DHT22;58475;49.662;9.636;2024-01-06T07:44:40;2.35;98.17
70851;DHT22;58475;49.662;9.636;2024-01-06T07:47:06;2.32;98.27
70851;DHT22;58475;49.662;9.636;2024-01-06T07:49:31;2.30;98.30
70851;DHT22;58475;49.662;9.636;2024-01-06T07:51:57;2.40;98.25
70851;DHT22;58475;49.662;9.636;2024-01-06T07:54:22;2.53;97.97
70851;DHT22;58475;49.662;9.636;2024-01-06T07:56:48;2.60;97.82
70851;DHT22;58475;49.662;9.636;2024-01-06T07:59:13;2.73;97.50
70851;DHT22;58475;49.662;9.636;2024-01-06T08:01:39;2.68;97.35
70851;DHT22;58475;49.662;9.636;2024-01-06T08:04:04;2.72;97.29
70851;DHT22;58475;49.662;9.636;2024-01-06T08:06:30;2.56;97.57
70851;DHT22;58475;49.662;9.636;2024-01-06T08:08:55;2.65;97.65
70851;DHT22;58475;49.662;9.636;2024-01-06T08:11:21;2.63;97.84
70851;DHT22;58475;49.662;9.636;2024-01-06T08:13:46;2.64;97.96
70851;DHT22;58475;49.662;9.636;2024-01-06T08:16:12;2.74;97.68
70851;DHT22;58475;49.662;9.636;2024-01-06T08:18:38;2.76;97.55
70851;DHT22;58475;49.662;9.636;2024-01-06T08:21:04;2.68;97.65
70851;DHT22;58475;49.662;9.636;2024-01-06T08:23:29;2.67;97.85
70851;DHT22;58475;49.662;9.636;2024-01-06T08:25:55;2.76;97.88
70851;DHT22;58475;49.662;9.636;2024-01-06T08:28:21;2.74;98.03
70851;DHT22;58475;49.662;9.636;2024-01-06T08:30:48;2.68;98.09
70851;DHT22;58475;49.662;9.636;2024-01-06T08:33:14;2.63;98.49
70851;DHT22;58475;49.662;9.636;2024-01-06T08:35:39;2.64;98.58
70851;DHT22;58475;49.662;9.636;2024-01-06T08:38:08;2.83;98.47
70851;DHT22;58475;49.662;9.636;2024-01-06T08:40:34;2.81;98.84
70851;DHT22;58475;49.662;9.636;2024-01-06T08:43:00;2.84;99.03
70851;DHT22;58475;49.662;9.636;2024-01-06T08:45:26;3.01;97.99
70851;DHT22;58475;49.662;9.636;2024-01-06T08:47:51;3.08;97.80
70851;DHT22;58475;49.662;9.636;2024-01-06T08:50:17;3.14;97.54
70851;DHT22;58475;49.662;9.636;2024-01-06T08:52:42;3.07;97.92
70851;DHT22;58475;49.662;9.636;2024-01-06T08:55:08;3.12;97.57
70851;DHT22;58475;49.662;9.636;2024-01-06T08:57:34;3.26;97.39
70851;DHT22;58475;49.662;9.636;2024-01-06T08:59:59;3.35;97.17
70851;DHT22;58475;49.662;9.636;2024-01-06T09:02:25;3.24;97.67
70851;DHT22;58475;49.662;9.636;2024-01-06T09:04:50;3.18;98.11
70851;DHT22;58475;49.662;9.636;2024-01-06T09:07:15;3.19;98.17
70851;DHT22;58475;49.662;9.636;2024-01-06T09:09:42;3.31;98.21
70851;DHT22;58475;49.662;9.636;2024-01-06T09:12:08;3.42;98.02
70851;DHT22;58475;49.662;9.636;2024-01-06T09:14:33;3.49;97.94
70851;DHT22;58475;49.662;9.636;2024-01-06T09:16:59;3.70;97.11
70851;DHT22;58475;49.662;9.636;2024-01-06T09:19:24;3.66;97.23
70851;DHT22;58475;49.662;9.636;2024-01-06T09:21:50;3.58;97.61
70851;DHT22;58475;49.662;9.636;2024-01-06T09:24:16;3.72;96.99
70851;DHT22;58475;49.662;9.636;2024-01-06T09:26:42;3.46;97.40
70851;DHT22;58475;49.662;9.636;2024-01-06T09:29:07;3.55;97.76
70851;DHT22;58475;49.662;9.636;2024-01-06T09:31:33;3.62;97.58
70851;DHT22;58475;49.662;9.636;2024-01-06T09:34:02;3.67;97.49
70851;DHT22;58475;49.662;9.636;2024-01-06T09:36:31;3.74;97.11
70851;DHT22;58475;49.662;9.636;2024-01-06T09:38:57;3.66;97.47
70851;DHT22;58475;49.662;9.636;2024-01-06T09:41:23;3.79;97.61
70851;DHT22;58475;49.662;9.636;2024-01-06T09:43:50;4.03;97.26
70851;DHT22;58475;49.662;9.636;2024-01-06T09:46:24;4.10;96.97
70851;DHT22;58475;49.662;9.636;2024-01-06T09:48:51;4.04;97.06
70851;DHT22;58475;49.662;9.636;2024-01-06T09:51:19;3.97;96.98
70851;DHT22;58475;49.662;9.636;2024-01-06T09:53:59;4.18;97.06
70851;DHT22;58475;49.662;9.636;2024-01-06T09:56:26;4.40;96.24
70851;DHT22;58475;49.662;9.636;2024-01-06T09:58:51;4.44;96.03
70851;DHT22;58475;49.662;9.636;2024-01-06T10:01:18;4.49;96.08
70851;DHT22;58475;49.662;9.636;2024-01-06T10:03:44;4.56;96.06
70851;DHT22;58475;49.662;9.636;2024-01-06T10:06:14;4.49;95.80
70851;DHT22;58475;49.662;9.636;2024-01-06T10:08:44;4.44;95.84
70851;DHT22;58475;49.662;9.636;2024-01-06T10:11:10;4.34;96.19
70851;DHT22;58475;49.662;9.636;2024-01-06T10:13:36;4.35;96.37
70851;DHT22;58475;49.662;9.636;2024-01-06T10:16:04;4.40;96.46
70851;DHT22;58475;49.662;9.636;2024-01-06T10:18:30;4.46;96.20
70851;DHT22;58475;49.662;9.636;2024-01-06T10:20:56;4.49;96.12
70851;DHT22;58475;49.662;9.636;2024-01-06T10:23:23;4.45;96.27
70851;DHT22;58475;49.662;9.636;2024-01-06T10:25:52;4.51;96.38
70851;DHT22;58475;49.662;9.636;2024-01-06T10:28:17;4.56;96.35
70851;DHT22;58475;49.662;9.636;2024-01-06T10:30:43;4.61;96.22
70851;DHT22;58475;49.662;9.636;2024-01-06T10:33:09;4.56;96.30
70851;DHT22;58475;49.662;9.636;2024-01-06T10:35:36;4.55;96.30
70851;DHT22;58475;49.662;9.636;2024-01-06T10:38:02;4.73;96.22
70851;DHT22;58475;49.662;9.636;2024-01-06T10:40:28;4.71;96.20
70851;DHT22;58475;49.662;9.636;2024-01-06T10:42:55;4.73;96.15
70851;DHT22;58475;49.662;9.636;2024-01-06T10:45:23;4.73;96.19
70851;DHT22;58475;49.662;9.636;2024-01-06T10:47:49;4.80;96.04
70851;DHT22;58475;49.662;9.636;2024-01-06T10:50:17;4.87;95.99
70851;DHT22;58475;49.662;9.636;2024-01-06T10:52:43;5.03;95.73
70851;DHT22;58475;49.662;9.636;2024-01-06T10:55:09;5.00;95.82
70851;DHT22;58475;49.662;9.636;2024-01-06T10:57:37;5.09;95.59
70851;DHT22;58475;49.662;9.636;2024-01-06T11:00:03;4.93;96.08
70851;DHT22;58475;49.662;9.636;2024-01-06T11:02:31;4.90;96.32
70851;DHT22;58475;49.662;9.636;2024-01-06T11:04:57;4.92;96.32
70851;DHT22;58475;49.662;9.636;2024-01-06T11:07:24;5.06;96.35
70851;DHT22;58475;49.662;9.636;2024-01-06T11:10:01;5.22;95.56
70851;DHT22;58475;49.662;9.636;2024-01-06T11:12:28;5.24;95.39
70851;DHT22;58475;49.662;9.636;2024-01-06T11:14:54;5.17;95.57
70851;DHT22;58475;49.662;9.636;2024-01-06T11:17:54;5.10;96.08
70851;DHT22;58475;49.662;9.636;2024-01-06T11:20:25;5.04;95.70
70851;DHT22;58475;49.662;9.636;2024-01-06T11:22:52;5.14;95.28
70851;DHT22;58475;49.662;9.636;2024-01-06T11:25:20;5.24;95.40
70851;DHT22;58475;49.662;9.636;2024-01-06T11:27:49;5.30;95.52
70851;DHT22;58475;49.662;9.636;2024-01-06T11:30:24;5.47;95.37
70851;DHT22;58475;49.662;9.636;2024-01-06T11:32:56;5.35;94.93
70851;DHT22;58475;49.662;9.636;2024-01-06T11:35:26;5.41;95.01
70851;DHT22;58475;49.662;9.636;2024-01-06T11:37:53;5.44;95.26
70851;DHT22;58475;49.662;9.636;2024-01-06T11:43:07;5.45;94.92
70851;DHT22;58475;49.662;9.636;2024-01-06T11:45:36;5.40;95.38
70851;DHT22;58475;49.662;9.636;2024-01-06T11:48:04;5.66;94.15
70851;DHT22;58475;49.662;9.636;2024-01-06T11:50:35;5.72;93.93
70851;DHT22;58475;49.662;9.636;2024-01-06T11:53:02;5.52;94.70
70851;DHT22;58475;49.662;9.636;2024-01-06T11:55:27;5.59;94.82
70851;DHT22;58475;49.662;9.636;2024-01-06T11:57:54;5.58;94.80
70851;DHT22;58475;49.662;9.636;2024-01-06T12:00:21;5.66;94.52
70851;DHT22;58475;49.662;9.636;2024-01-06T12:02:47;5.86;93.44
70851;DHT22;58475;49.662;9.636;2024-01-06T12:05:17;5.93;93.78
70851;DHT22;58475;49.662;9.636;2024-01-06T12:07:52;5.99;94.31
70851;DHT22;58475;49.662;9.636;2024-01-06T12:10:20;6.19;94.23
70851;DHT22;58475;49.662;9.636;2024-01-06T12:12:55;6.26;93.65
70851;DHT22;58475;49.662;9.636;2024-01-06T12:15:20;6.37;93.84
70851;DHT22;58475;49.662;9.636;2024-01-06T12:17:46;6.43;93.76
70851;DHT22;58475;49.662;9.636;2024-01-06T12:20:12;6.65;93.21
70851;DHT22;58475;49.662;9.636;2024-01-06T12:22:37;6.50;93.15
70851;DHT22;58475;49.662;9.636;2024-01-06T12:25:03;6.51;93.27
70851;DHT22;58475;49.662;9.636;2024-01-06T12:27:31;6.53;92.97
70851;DHT22;58475;49.662;9.636;2024-01-06T12:29:56;6.64;93.08
70851;DHT22;58475;49.662;9.636;2024-01-06T12:32:21;6.85;92.53
70851;DHT22;58475;49.662;9.636;2024-01-06T12:34:47;7.01;91.69
70851;DHT22;58475;49.662;9.636;2024-01-06T12:37:13;7.23;90.57
70851;DHT22;58475;49.662;9.636;2024-01-06T12:39:38;7.25;89.19
70851;DHT22;58475;49.662;9.636;2024-01-06T12:42:06;7.25;89.60
70851;DHT22;58475;49.662;9.636;2024-01-06T12:44:31;7.12;90.29
70851;DHT22;58475;49.662;9.636;2024-01-06T12:46:58;6.96;90.87
70851;DHT22;58475;49.662;9.636;2024-01-06T12:49:24;6.64;90.57
70851;DHT22;58475;49.662;9.636;2024-01-06T12:51:49;6.68;91.29
70851;DHT22;58475;49.662;9.636;2024-01-06T12:54:15;6.61;91.36
70851;DHT22;58475;49.662;9.636;2024-01-06T12:56:41;6.78;90.19
70851;DHT22;58475;49.662;9.636;2024-01-06T12:59:06;6.92;89.33
70851;DHT22;58475;49.662;9.636;2024-01-06T13:01:32;6.95;89.01
70851;DHT22;58475;49.662;9.636;2024-01-06T13:03:58;7.11;90.13
70851;DHT22;58475;49.662;9.636;2024-01-06T13:06:26;7.01;90.69
70851;DHT22;58475;49.662;9.636;2024-01-06T13:08:51;7.02;90.99
70851;DHT22;58475;49.662;9.636;2024-01-06T13:11:17;6.96;90.88
70851;DHT22;58475;49.662;9.636;2024-01-06T13:13:43;6.82;91.63
70851;DHT22;58475;49.662;9.636;2024-01-06T13:16:08;6.78;91.44
70851;DHT22;58475;49.662;9.636;2024-01-06T13:18:34;6.87;92.00
70851;DHT22;58475;49.662;9.636;2024-01-06T13:21:00;6.84;92.35
70851;DHT22;58475;49.662;9.636;2024-01-06T13:23:27;6.84;92.61
70851;DHT22;58475;49.662;9.636;2024-01-06T13:25:55;6.82;92.82
70851;DHT22;58475;49.662;9.636;2024-01-06T13:28:23;6.78;93.26
70851;DHT22;58475;49.662;9.636;2024-01-06T13:30:50;6.71;93.23
70851;DHT22;58475;49.662;9.636;2024-01-06T13:33:16;6.85;92.05
70851;DHT22;58475;49.662;9.636;2024-01-06T13:35:41;6.75;92.29
70851;DHT22;58475;49.662;9.636;2024-01-06T13:38:07;6.75;92.28
70851;DHT22;58475;49.662;9.636;2024-01-06T13:40:34;6.84;91.46
70851;DHT22;58475;49.662;9.636;2024-01-06T13:42:59;6.78;91.67
70851;DHT22;58475;49.662;9.636;2024-01-06T13:45:25;6.68;92.58
70851;DHT22;58475;49.662;9.636;2024-01-06T13:47:51;6.65;92.45
70851;DHT22;58475;49.662;9.636;2024-01-06T13:50:18;6.64;92.74
70851;DHT22;58475;49.662;9.636;2024-01-06T13:52:44;6.60;93.14
70851;DHT22;58475;49.662;9.636;2024-01-06T13:55:11;6.73;92.44
70851;DHT22;58475;49.662;9.636;2024-01-06T13:57:36;6.73;92.06
70851;DHT22;58475;49.662;9.636;2024-01-06T14:00:11;6.80;91.41
70851;DHT22;58475;49.662;9.636;2024-01-06T14:02:40;6.77;91.41
70851;DHT22;58475;49.662;9.636;2024-01-06T14:05:05;6.81;90.83
70851;DHT22;58475;49.662;9.636;2024-01-06T14:07:34;6.75;91.59
70851;DHT22;58475;49.662;9.636;2024-01-06T14:10:00;6.68;91.57
70851;DHT22;58475;49.662;9.636;2024-01-06T14:12:25;6.58;91.80
70851;DHT22;58475;49.662;9.636;2024-01-06T14:14:51;6.50;92.23
70851;DHT22;58475;49.662;9.636;2024-01-06T14:17:16;6.43;92.59
70851;DHT22;58475;49.662;9.636;2024-01-06T14:19:42;6.33;92.31
70851;DHT22;58475;49.662;9.636;2024-01-06T14:22:07;6.36;92.61
70851;DHT22;58475;49.662;9.636;2024-01-06T14:24:33;6.44;91.89
70851;DHT22;58475;49.662;9.636;2024-01-06T14:26:58;6.30;92.52
70851;DHT22;58475;49.662;9.636;2024-01-06T14:29:24;6.27;92.54
70851;DHT22;58475;49.662;9.636;2024-01-06T14:31:49;6.20;92.76
70851;DHT22;58475;49.662;9.636;2024-01-06T14:34:21;6.17;92.96
70851;DHT22;58475;49.662;9.636;2024-01-06T14:36:46;6.17;92.81
70851;DHT22;58475;49.662;9.636;2024-01-06T14:39:15;6.19;92.97
70851;DHT22;58475;49.662;9.636;2024-01-06T14:41:40;6.26;93.16
70851;DHT22;58475;49.662;9.636;2024-01-06T14:44:06;6.24;92.76
70851;DHT22;58475;49.662;9.636;2024-01-06T14:46:32;6.23;92.92
70851;DHT22;58475;49.662;9.636;2024-01-06T14:48:59;6.26;92.90
70851;DHT22;58475;49.662;9.636;2024-01-06T14:51:24;6.43;92.28
70851;DHT22;58475;49.662;9.636;2024-01-06T14:53:50;6.51;91.46
70851;DHT22;58475;49.662;9.636;2024-01-06T14:56:16;6.60;90.94
70851;DHT22;58475;49.662;9.636;2024-01-06T14:58:41;6.60;91.55
70851;DHT22;58475;49.662;9.636;2024-01-06T15:01:07;6.51;91.81
70851;DHT22;58475;49.662;9.636;2024-01-06T15:03:32;6.40;92.32
70851;DHT22;58475;49.662;9.636;2024-01-06T15:05:58;6.45;91.72
70851;DHT22;58475;49.662;9.636;2024-01-06T15:08:23;6.45;91.68
70851;DHT22;58475;49.662;9.636;2024-01-06T15:10:49;6.40;92.04
70851;DHT22;58475;49.662;9.636;2024-01-06T15:13:15;6.41;92.18
70851;DHT22;58475;49.662;9.636;2024-01-06T15:15:40;6.37;92.31
70851;DHT22;58475;49.662;9.636;2024-01-06T15:18:06;6.30;92.65
70851;DHT22;58475;49.662;9.636;2024-01-06T15:20:31;6.20;92.62
70851;DHT22;58475;49.662;9.636;2024-01-06T15:22:57;6.23;92.59
70851;DHT22;58475;49.662;9.636;2024-01-06T15:25:22;6.17;92.79
70851;DHT22;58475;49.662;9.636;2024-01-06T15:27:47;6.13;93.07
70851;DHT22;58475;49.662;9.636;2024-01-06T15:30:13;6.16;93.18
70851;DHT22;58475;49.662;9.636;2024-01-06T15:32:41;6.16;93.25
70851;DHT22;58475;49.662;9.636;2024-01-06T15:35:08;6.23;92.99
70851;DHT22;58475;49.662;9.636;2024-01-06T15:37:35;6.26;92.93
70851;DHT22;58475;49.662;9.636;2024-01-06T15:40:02;6.20;92.87